SND1 PAJN-PASI
Flight info
| Callsign | SND1 |
|---|---|
| Flight time | 0h 23m |
| Altitude | 14000 |
| Route | CLUCK |
| Aircraft | A319/M-SDE3FGHIRWY/LB1 |
Departure
| Time | 2026-04-13 21:34 |
|---|---|
| Airport | Juneau International Airport (PAJN) |
Arrival
| Time | 2026-04-13 21:57 |
|---|---|
| Airport | Sitka Rocky Gutierrez Airport (PASI) |
| Time | Latitude | Longitude | Altitude | Speed | Heading |
|---|---|---|---|---|---|
| 2026-04-13 21:22 | 58.35849 | -134.58436 | 32 ft | 0 kts | 46° |
| 2026-04-13 21:26 | 58.35836 | -134.58461 | 32 ft | 4 kts | 44° |
| 2026-04-13 21:27 | 58.35815 | -134.58494 | 32 ft | 4 kts | 25° |
| 2026-04-13 21:27 | 58.35796 | -134.58500 | 33 ft | 3 kts | 290° |
| 2026-04-13 21:27 | 58.35795 | -134.58496 | 33 ft | 0 kts | 285° |
| 2026-04-13 21:30 | 58.35795 | -134.58498 | 33 ft | 1 kts | 285° |
| 2026-04-13 21:30 | 58.35799 | -134.58525 | 33 ft | 3 kts | 285° |
| 2026-04-13 21:31 | 58.35799 | -134.58595 | 34 ft | 7 kts | 248° |
| 2026-04-13 21:31 | 58.35760 | -134.58663 | 34 ft | 8 kts | 246° |
| 2026-04-13 21:31 | 58.35768 | -134.58777 | 32 ft | 10 kts | 285° |
| 2026-04-13 21:31 | 58.35787 | -134.58912 | 34 ft | 11 kts | 285° |
| 2026-04-13 21:32 | 58.35809 | -134.59069 | 34 ft | 13 kts | 285° |
| 2026-04-13 21:32 | 58.35833 | -134.59240 | 34 ft | 14 kts | 285° |
| 2026-04-13 21:32 | 58.35860 | -134.59429 | 33 ft | 15 kts | 284° |
| 2026-04-13 21:32 | 58.35878 | -134.59619 | 34 ft | 14 kts | 259° |
| 2026-04-13 21:33 | 58.35816 | -134.59708 | 33 ft | 7 kts | 194° |
| 2026-04-13 21:33 | 58.35785 | -134.59698 | 34 ft | 4 kts | 132° |
| 2026-04-13 21:33 | 58.35782 | -134.59681 | 34 ft | 0 kts | 106° |
| 2026-04-13 21:34 | 58.35605 | -134.58415 | 32 ft | 122 kts | 105° |
| 2026-04-13 21:34 | 58.35359 | -134.56631 | 442 ft | 145 kts | 104° |
| 2026-04-13 21:34 | 58.35086 | -134.54709 | 1182 ft | 154 kts | 106° |
| 2026-04-13 21:34 | 58.34744 | -134.52778 | 1851 ft | 159 kts | 121° |
| 2026-04-13 21:35 | 58.33958 | -134.51115 | 2235 ft | 180 kts | 135° |
| 2026-04-13 21:35 | 58.32992 | -134.49312 | 2768 ft | 207 kts | 136° |
| 2026-04-13 21:35 | 58.30697 | -134.45039 | 4386 ft | 249 kts | 137° |
| 2026-04-13 21:36 | 58.29491 | -134.42695 | 5444 ft | 254 kts | 135° |
| 2026-04-13 21:36 | 58.28283 | -134.40202 | 6504 ft | 259 kts | 134° |
| 2026-04-13 21:36 | 58.27046 | -134.37673 | 7520 ft | 263 kts | 139° |
| 2026-04-13 21:36 | 58.25474 | -134.35948 | 8493 ft | 265 kts | 165° |
| 2026-04-13 21:37 | 58.23639 | -134.35746 | 9503 ft | 267 kts | 192° |
| 2026-04-13 21:37 | 58.21934 | -134.37144 | 10434 ft | 273 kts | 215° |
| 2026-04-13 21:37 | 58.20364 | -134.39446 | 10911 ft | 297 kts | 218° |
| 2026-04-13 21:37 | 58.18709 | -134.41951 | 11574 ft | 309 kts | 218° |
| 2026-04-13 21:38 | 58.17015 | -134.44525 | 12459 ft | 315 kts | 218° |
| 2026-04-13 21:38 | 58.15293 | -134.47139 | 13376 ft | 319 kts | 218° |
| 2026-04-13 21:38 | 58.13538 | -134.49787 | 13847 ft | 324 kts | 218° |
| 2026-04-13 21:38 | 58.11773 | -134.52440 | 13977 ft | 322 kts | 217° |
| 2026-04-13 21:39 | 58.10040 | -134.55040 | 14000 ft | 315 kts | 217° |
| 2026-04-13 21:39 | 58.08323 | -134.57604 | 13997 ft | 313 kts | 217° |
| 2026-04-13 21:39 | 58.06637 | -134.60109 | 13995 ft | 313 kts | 217° |
| 2026-04-13 21:39 | 58.04928 | -134.62648 | 13994 ft | 313 kts | 217° |
| 2026-04-13 21:40 | 58.03207 | -134.65202 | 13990 ft | 313 kts | 217° |
| 2026-04-13 21:40 | 58.01496 | -134.67736 | 13987 ft | 313 kts | 217° |
| 2026-04-13 21:40 | 57.99776 | -134.70285 | 13986 ft | 314 kts | 217° |
| 2026-04-13 21:40 | 57.98061 | -134.72828 | 13985 ft | 314 kts | 217° |
| 2026-04-13 21:41 | 57.96343 | -134.75371 | 13984 ft | 314 kts | 217° |
| 2026-04-13 21:41 | 57.94624 | -134.77914 | 13988 ft | 314 kts | 217° |
| 2026-04-13 21:41 | 57.92901 | -134.80454 | 13986 ft | 314 kts | 217° |
| 2026-04-13 21:41 | 57.91196 | -134.82961 | 13991 ft | 315 kts | 217° |
| 2026-04-13 21:42 | 57.89468 | -134.85497 | 13984 ft | 315 kts | 217° |
| 2026-04-13 21:42 | 57.87741 | -134.88033 | 13985 ft | 315 kts | 217° |
| 2026-04-13 21:42 | 57.86010 | -134.90578 | 13992 ft | 316 kts | 217° |
| 2026-04-13 21:42 | 57.84283 | -134.93113 | 13995 ft | 316 kts | 217° |
| 2026-04-13 21:43 | 57.82548 | -134.95652 | 13990 ft | 316 kts | 217° |
| 2026-04-13 21:43 | 57.80815 | -134.98182 | 13996 ft | 316 kts | 217° |
| 2026-04-13 21:43 | 57.79078 | -135.00716 | 13996 ft | 316 kts | 217° |
| 2026-04-13 21:43 | 57.77340 | -135.03252 | 13995 ft | 316 kts | 217° |
| 2026-04-13 21:44 | 57.75601 | -135.05790 | 13997 ft | 316 kts | 217° |
| 2026-04-13 21:44 | 57.73865 | -135.08320 | 13993 ft | 316 kts | 217° |
| 2026-04-13 21:44 | 57.72127 | -135.10849 | 13994 ft | 317 kts | 217° |
| 2026-04-13 21:44 | 57.70382 | -135.13385 | 13996 ft | 317 kts | 217° |
| 2026-04-13 21:45 | 57.68646 | -135.15905 | 14001 ft | 317 kts | 217° |
| 2026-04-13 21:45 | 57.66910 | -135.18427 | 13892 ft | 313 kts | 217° |
| 2026-04-13 21:45 | 57.65209 | -135.20893 | 13635 ft | 306 kts | 216° |
| 2026-04-13 21:45 | 57.63536 | -135.23312 | 13370 ft | 303 kts | 216° |
| 2026-04-13 21:46 | 57.61874 | -135.25703 | 13086 ft | 301 kts | 216° |
| 2026-04-13 21:46 | 57.60239 | -135.28050 | 12809 ft | 300 kts | 216° |
| 2026-04-13 21:46 | 57.58592 | -135.30418 | 12537 ft | 295 kts | 216° |
| 2026-04-13 21:46 | 57.56980 | -135.32739 | 12216 ft | 291 kts | 216° |
| 2026-04-13 21:47 | 57.55382 | -135.35034 | 11843 ft | 288 kts | 216° |
| 2026-04-13 21:47 | 57.53803 | -135.37300 | 11470 ft | 286 kts | 216° |
| 2026-04-13 21:47 | 57.52231 | -135.39553 | 11117 ft | 284 kts | 216° |
| 2026-04-13 21:47 | 57.50665 | -135.41791 | 10706 ft | 283 kts | 216° |
| 2026-04-13 21:48 | 57.49104 | -135.44020 | 10326 ft | 282 kts | 216° |
| 2026-04-13 21:48 | 57.47552 | -135.46237 | 10027 ft | 278 kts | 216° |
| 2026-04-13 21:48 | 57.46052 | -135.48377 | 9797 ft | 272 kts | 216° |
| 2026-04-13 21:48 | 57.44557 | -135.50508 | 9621 ft | 271 kts | 216° |
| 2026-04-13 21:49 | 57.43071 | -135.52623 | 9261 ft | 268 kts | 216° |
| 2026-04-13 21:49 | 57.41597 | -135.54716 | 8895 ft | 265 kts | 216° |
| 2026-04-13 21:49 | 57.40146 | -135.56777 | 8525 ft | 262 kts | 216° |
| 2026-04-13 21:49 | 57.38706 | -135.58819 | 8157 ft | 259 kts | 216° |
| 2026-04-13 21:50 | 57.37283 | -135.60836 | 7803 ft | 256 kts | 216° |
| 2026-04-13 21:50 | 57.35800 | -135.62583 | 7444 ft | 251 kts | 204° |
| 2026-04-13 21:50 | 57.34140 | -135.63502 | 7102 ft | 248 kts | 188° |
| 2026-04-13 21:50 | 57.32434 | -135.63864 | 6761 ft | 245 kts | 187° |
| 2026-04-13 21:51 | 57.30772 | -135.64216 | 6426 ft | 242 kts | 187° |
| 2026-04-13 21:51 | 57.29091 | -135.64575 | 6083 ft | 238 kts | 187° |
| 2026-04-13 21:51 | 57.27481 | -135.64920 | 5745 ft | 235 kts | 187° |
| 2026-04-13 21:51 | 57.25845 | -135.65268 | 5413 ft | 231 kts | 187° |
| 2026-04-13 21:52 | 57.24283 | -135.65599 | 5106 ft | 227 kts | 187° |
| 2026-04-13 21:52 | 57.22703 | -135.65904 | 4782 ft | 224 kts | 182° |
| 2026-04-13 21:52 | 57.21207 | -135.65386 | 4477 ft | 223 kts | 159° |
| 2026-04-13 21:52 | 57.19935 | -135.63743 | 4163 ft | 226 kts | 138° |
| 2026-04-13 21:53 | 57.18824 | -135.61706 | 3833 ft | 224 kts | 138° |
| 2026-04-13 21:53 | 57.17720 | -135.59693 | 3522 ft | 221 kts | 138° |
| 2026-04-13 21:53 | 57.16642 | -135.57727 | 3219 ft | 214 kts | 138° |
| 2026-04-13 21:53 | 57.15598 | -135.55827 | 2930 ft | 208 kts | 139° |
| 2026-04-13 21:54 | 57.14582 | -135.53984 | 2635 ft | 200 kts | 138° |
| 2026-04-13 21:54 | 57.13614 | -135.52232 | 2374 ft | 190 kts | 139° |
| 2026-04-13 21:54 | 57.12706 | -135.50588 | 2127 ft | 178 kts | 139° |
| 2026-04-13 21:54 | 57.11855 | -135.49045 | 1843 ft | 164 kts | 139° |
| 2026-04-13 21:55 | 57.11095 | -135.47664 | 1625 ft | 143 kts | 138° |
| 2026-04-13 21:55 | 57.10418 | -135.46442 | 1439 ft | 132 kts | 137° |
| 2026-04-13 21:55 | 57.09769 | -135.45277 | 1259 ft | 129 kts | 137° |
| 2026-04-13 21:55 | 57.09123 | -135.44135 | 1088 ft | 129 kts | 136° |
| 2026-04-13 21:56 | 57.08477 | -135.42996 | 923 ft | 128 kts | 136° |
| 2026-04-13 21:56 | 57.07849 | -135.41870 | 776 ft | 128 kts | 135° |
| 2026-04-13 21:56 | 57.07217 | -135.40727 | 608 ft | 127 kts | 134° |
| 2026-04-13 21:56 | 57.06593 | -135.39582 | 417 ft | 126 kts | 134° |
| 2026-04-13 21:57 | 57.05968 | -135.38447 | 252 ft | 126 kts | 132° |
| 2026-04-13 21:57 | 57.05347 | -135.37314 | 67 ft | 125 kts | 133° |
| 2026-04-13 21:57 | 57.04770 | -135.36269 | 35 ft | 96 kts | 136° |
| 2026-04-13 21:57 | 57.04482 | -135.35756 | 34 ft | 36 kts | 135° |
| 2026-04-13 21:58 | 57.04319 | -135.35462 | 37 ft | 31 kts | 136° |
| 2026-04-13 21:58 | 57.04174 | -135.35202 | 38 ft | 22 kts | 135° |
| 2026-04-13 21:58 | 57.04104 | -135.35097 | 36 ft | 8 kts | 161° |
| 2026-04-13 21:58 | 57.04091 | -135.35044 | 36 ft | 6 kts | 24° |
| 2026-04-13 21:59 | 57.04121 | -135.35099 | 36 ft | 7 kts | 306° |
| 2026-04-13 21:59 | 57.04162 | -135.35174 | 37 ft | 9 kts | 315° |
| 2026-04-13 21:59 | 57.04208 | -135.35258 | 37 ft | 10 kts | 315° |
| 2026-04-13 21:59 | 57.04263 | -135.35358 | 37 ft | 13 kts | 315° |
| 2026-04-13 22:00 | 57.04308 | -135.35439 | 35 ft | 15 kts | 316° |
| 2026-04-13 22:00 | 57.04386 | -135.35579 | 35 ft | 17 kts | 315° |
| 2026-04-13 22:00 | 57.04476 | -135.35741 | 35 ft | 19 kts | 316° |
| 2026-04-13 22:00 | 57.04573 | -135.35916 | 34 ft | 20 kts | 315° |
| 2026-04-13 22:01 | 57.04673 | -135.36097 | 36 ft | 21 kts | 315° |
| 2026-04-13 22:01 | 57.04827 | -135.36304 | 35 ft | 21 kts | 357° |
| 2026-04-13 22:01 | 57.04922 | -135.36308 | 32 ft | 20 kts | 352° |
| 2026-04-13 22:01 | 57.05034 | -135.36463 | 33 ft | 20 kts | 315° |
| 2026-04-13 22:02 | 57.05129 | -135.36637 | 32 ft | 19 kts | 314° |
| 2026-04-13 22:02 | 57.05206 | -135.36720 | 34 ft | 12 kts | 25° |
| 2026-04-13 22:02 | 57.05228 | -135.36633 | 32 ft | 5 kts | 75° |
| 2026-04-13 22:02 | 57.05232 | -135.36604 | 34 ft | 1 kts | 75° |
| 2026-04-13 22:03 | 57.05233 | -135.36596 | 34 ft | 0 kts | 75° |